createdAt,value
2022-09-10T00:03:06.108Z,93.40
2022-09-10T00:11:13.113Z,93.50
2022-09-10T00:19:22.011Z,93.50
2022-09-10T00:27:27.539Z,93.50
2022-09-10T00:35:39.825Z,93.40
2022-09-10T00:43:51.597Z,93.50
2022-09-10T00:52:00.231Z,93.50
2022-09-10T01:00:09.830Z,93.90
2022-09-10T01:08:19.929Z,93.80
2022-09-10T01:16:34.868Z,94.20
2022-09-10T01:24:54.477Z,94.00
2022-09-10T01:33:10.358Z,93.90
2022-09-10T01:41:19.594Z,93.80
2022-09-10T01:49:40.529Z,93.80
2022-09-10T01:57:55.516Z,93.60
2022-09-10T02:06:12.513Z,94.00
2022-09-10T02:14:18.060Z,93.80
2022-09-10T02:22:49.275Z,93.70
2022-09-10T02:30:56.360Z,93.90
2022-09-10T02:39:05.291Z,93.80
2022-09-10T02:47:10.970Z,93.70
2022-09-10T02:55:19.139Z,93.60
2022-09-10T03:03:25.408Z,93.50
2022-09-10T03:11:34.952Z,93.40
2022-09-10T03:19:40.367Z,93.70
2022-09-10T03:27:48.473Z,93.60
2022-09-10T03:35:57.070Z,93.50
2022-09-10T03:44:09.408Z,93.40
2022-09-10T03:52:14.851Z,93.40
2022-09-10T04:00:24.542Z,93.40
2022-09-10T04:08:29.946Z,93.70
2022-09-10T04:16:38.062Z,93.40
2022-09-10T04:24:45.582Z,93.20
2022-09-10T04:32:54.917Z,93.30
2022-09-10T04:41:00.818Z,92.90
2022-09-10T04:49:09.935Z,92.50
2022-09-10T04:57:15.582Z,92.20
2022-09-10T05:05:23.653Z,92.20
2022-09-10T05:13:31.152Z,92.20
2022-09-10T05:21:40.660Z,92.20
2022-09-10T05:29:46.099Z,92.10
2022-09-10T05:37:54.260Z,92.30
2022-09-10T05:46:00.022Z,92.30
2022-09-10T05:54:08.461Z,92.10
2022-09-10T06:02:23.971Z,92.10
2022-09-10T06:10:35.225Z,92.20
2022-09-10T06:18:40.841Z,92.20
2022-09-10T06:26:51.790Z,92.20
2022-09-10T06:34:57.250Z,91.90
2022-09-10T06:43:07.224Z,91.10
2022-09-10T06:51:39.655Z,90.20
2022-09-10T06:59:49.812Z,87.40
2022-09-10T07:07:55.555Z,86.40
2022-09-10T07:16:04.321Z,84.90
2022-09-10T07:24:12.959Z,83.90
2022-09-10T07:32:23.582Z,83.30
2022-09-10T07:40:37.103Z,81.80
2022-09-10T07:48:48.647Z,80.60
2022-09-10T07:56:55.066Z,77.40
2022-09-10T08:05:04.414Z,80.40
2022-09-10T08:13:12.929Z,81.40
2022-09-10T08:21:22.163Z,81.40
2022-09-10T08:29:28.829Z,81.80
2022-09-10T08:37:38.208Z,80.80
2022-09-10T08:45:50.720Z,81.50
2022-09-10T08:54:00.256Z,79.80
2022-09-10T09:02:37.853Z,79.80
2022-09-10T09:10:51.586Z,78.10
2022-09-10T09:19:17.366Z,78.30
2022-09-10T09:27:29.498Z,78.20
2022-09-10T09:35:45.753Z,75.80
2022-09-10T09:43:59.040Z,72.30
2022-09-10T09:52:19.359Z,70.30
2022-09-10T10:00:41.971Z,69.40
2022-09-10T10:08:49.477Z,68.40
2022-09-10T10:17:00.658Z,65.70
2022-09-10T10:25:09.506Z,63.80
2022-09-10T10:33:26.685Z,53.40
2022-09-10T10:41:58.897Z,40.60
2022-09-10T10:50:21.510Z,34.10
2022-09-10T10:58:49.181Z,38.90
2022-09-10T11:07:13.177Z,46.90
2022-09-10T11:15:29.549Z,53.20
2022-09-10T11:23:51.470Z,56.00
2022-09-10T11:32:04.732Z,53.90
2022-09-10T11:40:29.206Z,44.60
2022-09-10T11:48:38.437Z,38.60
2022-09-10T11:57:05.338Z,38.00
2022-09-10T12:05:23.762Z,41.20
2022-09-10T12:13:33.391Z,38.50
2022-09-10T12:21:43.233Z,41.00
2022-09-10T12:29:54.586Z,41.40
2022-09-10T12:38:29.567Z,37.10
2022-09-10T12:46:51.278Z,43.00
2022-09-10T12:55:07.150Z,50.30
2022-09-10T13:03:19.894Z,56.50
2022-09-10T13:11:27.029Z,67.10
2022-09-10T13:19:54.102Z,76.20
2022-09-10T13:27:59.410Z,82.60
2022-09-10T13:36:20.330Z,84.80
2022-09-10T13:44:46.184Z,84.40
2022-09-10T13:52:57.838Z,84.70
2022-09-10T14:01:05.759Z,84.60
2022-09-10T14:09:14.901Z,82.60
2022-09-10T14:17:26.286Z,80.30
2022-09-10T14:25:36.765Z,79.00
2022-09-10T14:33:49.708Z,78.60
2022-09-10T14:42:27.447Z,79.40
2022-09-10T14:50:37.660Z,79.90
2022-09-10T14:58:46.096Z,80.40
2022-09-10T15:06:57.349Z,79.40
2022-09-10T15:15:07.939Z,78.50
2022-09-10T15:23:14.370Z,78.30
2022-09-10T15:31:23.429Z,78.40
2022-09-10T15:39:28.718Z,79.40
2022-09-10T15:47:37.377Z,80.00
2022-09-10T15:55:42.689Z,80.50
2022-09-10T16:04:05.025Z,81.90
2022-09-10T16:12:10.749Z,82.50
2022-09-10T16:20:20.416Z,85.00
2022-09-10T16:28:35.114Z,85.50
2022-09-10T16:36:43.688Z,85.80
2022-09-10T16:44:49.259Z,87.40
2022-09-10T16:53:03.741Z,87.00
2022-09-10T17:01:11.909Z,86.50
2022-09-10T17:09:19.989Z,86.10
2022-09-10T17:17:25.321Z,86.40
2022-09-10T17:25:33.200Z,87.00
2022-09-10T17:33:39.140Z,86.00
2022-09-10T17:41:47.265Z,85.90
2022-09-10T17:49:52.748Z,86.40
2022-09-10T17:58:02.175Z,86.50
2022-09-10T18:06:25.338Z,87.80
2022-09-10T18:14:33.330Z,88.10
2022-09-10T18:22:38.628Z,88.10
2022-09-10T18:30:46.482Z,87.90
2022-09-10T18:38:52.943Z,87.40
2022-09-10T18:47:00.822Z,87.70
2022-09-10T18:55:06.557Z,88.20
2022-09-10T19:03:14.510Z,88.40
2022-09-10T19:11:24.538Z,87.80
2022-09-10T19:19:34.084Z,88.30
2022-09-10T19:27:42.409Z,89.20
2022-09-10T19:35:54.633Z,89.20
2022-09-10T19:44:17.750Z,89.90
2022-09-10T19:52:27.281Z,90.20
2022-09-10T20:00:46.417Z,90.10
2022-09-10T20:08:55.422Z,90.00
2022-09-10T20:17:12.199Z,89.90
2022-09-10T20:25:20.214Z,89.90
2022-09-10T20:33:27.059Z,89.30
2022-09-10T20:41:39.295Z,88.80
2022-09-10T20:49:44.662Z,88.70
2022-09-10T20:57:52.570Z,88.40
2022-09-10T21:05:58.494Z,88.70
2022-09-10T21:14:10.385Z,87.30
2022-09-10T21:22:15.699Z,87.40
2022-09-10T21:30:23.670Z,87.00
2022-09-10T21:38:29.306Z,86.20
2022-09-10T21:46:40.122Z,85.30
2022-09-10T21:54:45.488Z,84.90
2022-09-10T22:02:55.561Z,85.50
2022-09-10T22:11:01.139Z,84.60
2022-09-10T22:19:19.367Z,85.80
2022-09-10T22:27:24.717Z,86.80
2022-09-10T22:35:34.722Z,87.60
2022-09-10T22:43:41.369Z,87.40
2022-09-10T22:51:49.309Z,87.30
2022-09-10T22:59:56.315Z,87.10
2022-09-10T23:08:04.505Z,86.60
2022-09-10T23:16:20.021Z,86.00
2022-09-10T23:24:29.203Z,85.50
2022-09-10T23:32:34.520Z,85.20
2022-09-10T23:40:44.226Z,85.40
2022-09-10T23:48:49.649Z,86.80
2022-09-10T23:56:57.567Z,87.00
